createdAt,value
2023-10-08T00:07:52.624Z,8.75
2023-10-08T00:15:58.454Z,11.20
2023-10-08T00:24:13.595Z,9.52
2023-10-08T00:32:20.171Z,6.93
2023-10-08T00:40:30.770Z,8.38
2023-10-08T00:48:37.242Z,8.48
2023-10-08T00:56:54.443Z,6.85
2023-10-08T01:05:01.735Z,6.30
2023-10-08T01:13:16.110Z,8.80
2023-10-08T01:21:35.590Z,9.35
2023-10-08T01:29:45.834Z,8.45
2023-10-08T01:37:51.997Z,9.25
2023-10-08T01:46:00.201Z,7.53
2023-10-08T01:54:11.341Z,6.95
2023-10-08T02:02:20.546Z,8.60
2023-10-08T02:10:26.574Z,7.15
2023-10-08T02:18:34.607Z,9.80
2023-10-08T02:26:40.161Z,7.95
2023-10-08T02:34:48.272Z,7.65
2023-10-08T02:42:53.698Z,9.60
2023-10-08T02:59:40.571Z,7.60
2023-10-08T03:07:52.556Z,8.45
2023-10-08T03:16:11.028Z,9.07
2023-10-08T03:24:31.330Z,7.50
2023-10-08T03:32:37.087Z,7.25
2023-10-08T03:40:47.570Z,7.88
2023-10-08T03:48:53.674Z,10.30
2023-10-08T03:57:02.355Z,8.68
2023-10-08T04:05:19.852Z,8.15
2023-10-08T04:13:29.494Z,7.82
2023-10-08T04:21:35.350Z,10.05
2023-10-08T04:29:45.001Z,7.68
2023-10-08T04:37:53.861Z,8.13
2023-10-08T04:46:06.586Z,10.85
2023-10-08T04:54:12.937Z,9.67
2023-10-08T05:02:35.479Z,6.65
2023-10-08T05:11:04.503Z,8.27
2023-10-08T05:19:48.949Z,9.52
2023-10-08T05:36:29.749Z,14.70
2023-10-08T05:44:40.800Z,9.18
2023-10-08T05:53:03.564Z,9.80
2023-10-08T06:01:27.462Z,10.23
2023-10-08T06:09:41.267Z,11.38
2023-10-08T06:18:06.213Z,7.47
2023-10-08T06:26:23.256Z,8.85
2023-10-08T06:34:29.464Z,8.02
2023-10-08T06:42:38.599Z,9.32
2023-10-08T06:50:44.041Z,10.43
2023-10-08T06:58:54.638Z,10.95
2023-10-08T07:07:01.158Z,9.27
2023-10-08T07:15:13.860Z,10.18
2023-10-08T07:23:26.293Z,9.05
2023-10-08T07:31:35.731Z,13.05
2023-10-08T07:39:48.400Z,13.85
2023-10-08T07:47:56.879Z,12.35
2023-10-08T07:56:07.983Z,17.20
2023-10-08T08:04:22.816Z,16.35
2023-10-08T08:12:29.814Z,16.40
2023-10-08T08:20:40.411Z,10.40
2023-10-08T08:28:47.542Z,13.70
2023-10-08T08:36:55.763Z,17.27
2023-10-08T08:45:02.038Z,12.07
2023-10-08T08:53:11.175Z,15.68
2023-10-08T09:01:18.956Z,16.58
2023-10-08T09:09:29.296Z,11.55
2023-10-08T09:17:34.827Z,15.40
2023-10-08T09:25:43.418Z,14.60
2023-10-08T09:33:58.350Z,13.63
2023-10-08T09:42:08.620Z,9.30
2023-10-08T09:50:16.143Z,10.57
2023-10-08T09:58:26.034Z,10.32
2023-10-08T10:06:33.687Z,11.30
2023-10-08T10:14:50.082Z,9.98
2023-10-08T10:22:55.563Z,8.82
2023-10-08T10:31:05.119Z,20.25
2023-10-08T10:39:17.459Z,11.00
2023-10-08T10:47:44.229Z,15.10
2023-10-08T10:56:00.135Z,9.65
2023-10-08T11:04:17.483Z,9.43
2023-10-08T11:12:44.091Z,8.90
2023-10-08T11:21:00.743Z,22.23
2023-10-08T11:29:08.038Z,9.88
2023-10-08T11:37:27.289Z,13.73
2023-10-08T11:45:39.616Z,15.85
2023-10-08T11:53:48.225Z,12.30
2023-10-08T12:01:53.901Z,12.77
2023-10-08T12:10:01.986Z,10.70
2023-10-08T12:18:16.735Z,10.50
2023-10-08T12:26:25.107Z,11.13
2023-10-08T12:34:31.086Z,9.98
2023-10-08T12:42:40.063Z,13.48
2023-10-08T12:50:54.432Z,10.93
2023-10-08T12:59:05.641Z,12.30
2023-10-08T13:07:13.269Z,14.10
2023-10-08T13:15:27.178Z,12.90
2023-10-08T13:23:36.544Z,13.55
2023-10-08T13:31:47.437Z,14.23
2023-10-08T13:39:54.321Z,15.52
2023-10-08T13:48:03.356Z,15.25
2023-10-08T13:56:08.909Z,15.15
2023-10-08T14:04:19.275Z,10.35
2023-10-08T14:12:28.916Z,15.32
2023-10-08T14:20:41.951Z,14.57
2023-10-08T14:37:25.192Z,8.60
2023-10-08T14:45:33.119Z,6.53
2023-10-08T14:53:41.567Z,5.90
2023-10-08T15:01:48.495Z,5.53
2023-10-08T15:09:58.904Z,3.90
2023-10-08T15:18:04.757Z,4.90
2023-10-08T15:26:13.413Z,2.30
2023-10-08T15:34:32.344Z,3.08
2023-10-08T15:42:43.509Z,4.93
2023-10-08T15:50:49.134Z,4.85
2023-10-08T15:58:57.278Z,4.22
2023-10-08T16:07:02.981Z,4.35
2023-10-08T16:15:12.681Z,1.52
2023-10-08T16:23:18.672Z,3.35
2023-10-08T16:31:26.795Z,2.15
2023-10-08T16:39:32.424Z,1.50
2023-10-08T16:47:43.569Z,1.88
2023-10-08T16:55:51.338Z,1.80
2023-10-08T17:04:01.090Z,2.38
2023-10-08T17:12:11.227Z,3.92
2023-10-08T17:20:23.759Z,3.08
2023-10-08T17:28:32.283Z,1.63
2023-10-08T17:36:40.711Z,1.88
2023-10-08T17:44:46.751Z,3.47
2023-10-08T17:52:56.069Z,1.42
2023-10-08T18:01:07.578Z,1.95
2023-10-08T18:09:21.786Z,2.03
2023-10-08T18:17:27.485Z,3.05
2023-10-08T18:25:35.777Z,2.30
2023-10-08T18:33:44.820Z,2.85
2023-10-08T18:41:55.741Z,3.28
2023-10-08T18:50:12.894Z,3.40
2023-10-08T18:58:23.994Z,2.05
2023-10-08T19:06:30.373Z,1.30
2023-10-08T19:14:39.397Z,2.28
2023-10-08T19:22:47.420Z,2.42
2023-10-08T19:31:03.490Z,2.75
2023-10-08T19:39:14.840Z,2.03
2023-10-08T19:47:23.097Z,2.20
2023-10-08T19:55:28.543Z,2.22
2023-10-08T20:03:36.754Z,2.70
2023-10-08T20:11:42.332Z,2.67
2023-10-08T20:19:52.248Z,4.40
2023-10-08T20:27:57.838Z,4.00
2023-10-08T20:36:07.117Z,2.65
2023-10-08T20:44:13.663Z,3.78
2023-10-08T20:52:22.340Z,4.47
2023-10-08T21:00:31.517Z,3.92
2023-10-08T21:08:39.917Z,2.78
2023-10-08T21:16:45.299Z,2.03
2023-10-08T21:24:53.336Z,1.90
2023-10-08T21:33:00.528Z,2.83
2023-10-08T21:41:08.628Z,3.17
2023-10-08T21:49:14.389Z,3.13
2023-10-08T21:57:22.669Z,2.97
2023-10-08T22:05:31.090Z,3.45
2023-10-08T22:13:40.079Z,4.38
2023-10-08T22:21:48.012Z,3.42
2023-10-08T22:29:56.386Z,3.80
2023-10-08T22:38:06.357Z,5.38
2023-10-08T22:46:26.117Z,4.13
2023-10-08T22:54:33.540Z,3.17
2023-10-08T23:11:08.184Z,4.28
2023-10-08T23:19:16.366Z,4.78
2023-10-08T23:27:21.851Z,7.50
2023-10-08T23:35:29.940Z,3.78
2023-10-08T23:43:42.349Z,4.45
2023-10-08T23:51:53.322Z,5.43
